createdAt,value
2019-01-04T00:00:06.813Z,10.50
2019-01-04T00:01:06.826Z,9.90
2019-01-04T00:02:06.794Z,10.70
2019-01-04T00:03:06.784Z,10.60
2019-01-04T00:04:06.771Z,10.70
2019-01-04T00:05:06.763Z,11.20
2019-01-04T00:06:06.752Z,10.90
2019-01-04T00:07:06.742Z,10.80
2019-01-04T00:08:06.741Z,11.00
2019-01-04T00:09:06.740Z,10.60
2019-01-04T00:10:06.710Z,11.40
2019-01-04T00:11:06.701Z,10.90
2019-01-04T00:12:06.689Z,10.90
2019-01-04T00:13:06.681Z,11.40
2019-01-04T00:14:06.680Z,11.20
2019-01-04T00:15:06.660Z,10.70
2019-01-04T00:16:06.648Z,11.30
2019-01-04T00:17:06.639Z,10.90
2019-01-04T00:18:06.627Z,11.00
2019-01-04T00:19:06.919Z,10.70
2019-01-04T00:20:06.609Z,10.40
2019-01-04T00:21:06.599Z,11.00
2019-01-04T00:22:06.585Z,11.00
2019-01-04T00:23:06.575Z,11.20
2019-01-04T00:24:06.564Z,10.80
2019-01-04T00:25:06.556Z,10.90
2019-01-04T00:26:06.543Z,11.20
2019-01-04T00:27:06.534Z,11.30
2019-01-04T00:28:06.521Z,11.10
2019-01-04T00:29:06.513Z,10.70
2019-01-04T00:30:06.502Z,11.00
2019-01-04T00:31:06.492Z,12.00
2019-01-04T00:32:06.479Z,10.90
2019-01-04T00:33:06.472Z,11.90
2019-01-04T00:34:06.512Z,11.20
2019-01-04T00:35:06.452Z,11.10
2019-01-04T00:36:06.438Z,11.90
2019-01-04T00:37:06.429Z,12.40
2019-01-04T00:38:06.418Z,12.40
2019-01-04T00:39:06.408Z,12.20
2019-01-04T00:40:06.396Z,12.40
2019-01-04T00:41:06.388Z,12.10
2019-01-04T00:42:06.377Z,13.00
2019-01-04T00:43:06.366Z,13.10
2019-01-04T00:44:06.358Z,12.40
2019-01-04T00:45:06.349Z,12.20
2019-01-04T00:46:06.333Z,12.70
2019-01-04T00:47:06.326Z,12.30
2019-01-04T00:48:06.312Z,12.40
2019-01-04T00:49:06.604Z,12.00
2019-01-04T00:50:06.291Z,12.70
2019-01-04T00:51:06.281Z,12.30
2019-01-04T00:52:06.269Z,12.50
2019-01-04T00:53:06.261Z,13.40
2019-01-04T00:54:06.254Z,12.70
2019-01-04T00:55:06.239Z,12.40
2019-01-04T00:56:06.229Z,12.90
2019-01-04T00:57:06.221Z,12.60
2019-01-04T00:58:06.207Z,12.10
2019-01-04T00:59:06.197Z,12.80
2019-01-04T01:00:06.187Z,12.00
2019-01-04T01:01:06.176Z,12.00
2019-01-04T01:02:06.165Z,12.20
2019-01-04T01:03:06.155Z,11.90
2019-01-04T01:04:06.142Z,11.80
2019-01-04T01:05:06.135Z,12.30
2019-01-04T01:06:06.122Z,12.00
2019-01-04T01:07:06.112Z,11.50
2019-01-04T01:08:06.105Z,11.80
2019-01-04T01:09:06.093Z,11.90
2019-01-04T01:10:06.083Z,11.50
2019-01-04T01:11:06.070Z,11.70
2019-01-04T01:12:06.058Z,11.90
2019-01-04T01:13:06.048Z,11.60
2019-01-04T01:14:06.041Z,11.90
2019-01-04T01:15:06.030Z,12.50
2019-01-04T01:16:06.021Z,11.50
2019-01-04T01:17:06.008Z,11.80
2019-01-04T01:18:05.997Z,11.70
2019-01-04T01:19:05.984Z,12.20
2019-01-04T01:20:05.975Z,11.50
2019-01-04T01:21:05.966Z,11.80
2019-01-04T01:22:05.956Z,12.20
2019-01-04T01:23:05.941Z,12.00
2019-01-04T01:24:05.933Z,12.00
2019-01-04T01:25:05.920Z,11.80
2019-01-04T01:26:05.912Z,11.30
2019-01-04T01:27:05.899Z,11.80
2019-01-04T01:28:05.891Z,11.30
2019-01-04T01:29:05.880Z,11.30
2019-01-04T01:30:05.871Z,11.40
2019-01-04T01:31:05.857Z,11.90
2019-01-04T01:32:05.849Z,11.20
2019-01-04T01:33:05.837Z,12.20
2019-01-04T01:34:05.835Z,11.70
2019-01-04T01:35:05.814Z,11.80
2019-01-04T01:36:05.808Z,11.70
2019-01-04T01:37:05.795Z,11.60
2019-01-04T01:38:05.807Z,11.60
2019-01-04T01:39:05.776Z,11.50
2019-01-04T01:40:05.779Z,11.60
2019-01-04T01:41:05.752Z,11.50
2019-01-04T01:42:05.744Z,11.70
2019-01-04T01:43:05.730Z,11.40
2019-01-04T01:44:05.722Z,11.90
2019-01-04T01:45:05.709Z,10.70
2019-01-04T01:46:05.701Z,11.50
2019-01-04T01:47:05.687Z,10.90
2019-01-04T01:48:05.681Z,10.80
2019-01-04T01:49:05.667Z,11.70
2019-01-04T01:50:05.659Z,10.60
2019-01-04T01:51:05.646Z,10.70
2019-01-04T01:52:05.637Z,10.30
2019-01-04T01:53:05.640Z,10.80
2019-01-04T01:54:05.617Z,11.00
2019-01-04T01:55:05.607Z,11.10
2019-01-04T01:56:05.595Z,10.60
2019-01-04T01:57:05.583Z,10.90
2019-01-04T01:58:05.575Z,11.00
2019-01-04T01:59:05.562Z,11.50
2019-01-04T02:00:05.556Z,10.90
2019-01-04T02:01:05.543Z,10.90
2019-01-04T02:02:05.533Z,11.00
2019-01-04T02:03:05.520Z,11.10
2019-01-04T02:04:05.514Z,11.70
2019-01-04T02:05:05.500Z,11.60
2019-01-04T02:06:05.491Z,11.50
2019-01-04T02:07:05.478Z,11.50
2019-01-04T02:08:05.472Z,11.80
2019-01-04T02:09:07.394Z,11.60
2019-01-04T02:10:05.453Z,12.80
2019-01-04T02:11:05.435Z,11.80
2019-01-04T02:12:05.427Z,12.70
2019-01-04T02:13:05.415Z,12.70
2019-01-04T02:14:05.408Z,13.40
2019-01-04T02:15:05.398Z,11.70
2019-01-04T02:16:05.387Z,12.70
2019-01-04T02:17:05.372Z,12.90
2019-01-04T02:18:05.364Z,12.00
2019-01-04T02:19:05.350Z,11.90
2019-01-04T02:20:05.642Z,12.70
2019-01-04T02:21:05.373Z,13.10
2019-01-04T02:22:05.321Z,12.60
2019-01-04T02:23:05.307Z,13.10
2019-01-04T02:24:05.299Z,13.50
2019-01-04T02:25:05.290Z,13.70
2019-01-04T02:26:05.279Z,14.40
2019-01-04T02:27:05.264Z,13.70
2019-01-04T02:28:05.256Z,13.40
2019-01-04T02:29:05.247Z,13.40
2019-01-04T02:30:05.239Z,13.30
2019-01-04T02:31:05.224Z,13.10
2019-01-04T02:32:05.224Z,13.20
2019-01-04T02:33:05.201Z,13.60
2019-01-04T02:34:05.193Z,13.30
2019-01-04T02:35:05.184Z,14.00
2019-01-04T02:36:05.181Z,14.60
2019-01-04T02:37:05.156Z,14.20
2019-01-04T02:38:05.148Z,14.60
2019-01-04T02:39:05.135Z,13.90
2019-01-04T02:40:05.125Z,14.40
2019-01-04T02:41:05.115Z,14.60
2019-01-04T02:42:05.107Z,15.10
2019-01-04T02:43:05.098Z,14.60
2019-01-04T02:44:05.142Z,14.40
2019-01-04T02:45:05.075Z,14.50
2019-01-04T02:46:05.062Z,14.80
2019-01-04T02:47:05.137Z,15.00
2019-01-04T02:48:05.039Z,15.20
2019-01-04T02:49:05.025Z,15.20
2019-01-04T02:50:05.031Z,15.20
2019-01-04T02:51:05.003Z,14.70
2019-01-04T02:52:04.994Z,14.80
2019-01-04T02:53:04.983Z,15.20
2019-01-04T02:54:04.975Z,15.10
2019-01-04T02:55:05.259Z,15.50
2019-01-04T02:56:04.951Z,15.80
2019-01-04T02:57:04.937Z,15.00
2019-01-04T02:58:04.929Z,15.70
2019-01-04T02:59:04.926Z,15.50
2019-01-04T03:00:04.906Z,15.30
2019-01-04T03:01:04.894Z,16.10
2019-01-04T03:02:04.885Z,15.40
2019-01-04T03:03:04.874Z,15.50
2019-01-04T03:04:04.872Z,15.40
2019-01-04T03:05:04.850Z,16.10
2019-01-04T03:06:04.858Z,16.50
2019-01-04T03:07:04.828Z,15.50
2019-01-04T03:08:04.818Z,15.70
2019-01-04T03:09:04.805Z,16.50
2019-01-04T03:10:04.798Z,16.40
2019-01-04T03:11:04.786Z,17.00
2019-01-04T03:12:04.773Z,17.40
2019-01-04T03:13:04.761Z,16.60
2019-01-04T03:14:04.752Z,17.20
2019-01-04T03:15:04.738Z,18.10
2019-01-04T03:16:04.729Z,17.90
2019-01-04T03:17:04.718Z,18.50
2019-01-04T03:18:04.709Z,18.80
2019-01-04T03:19:04.699Z,18.60
2019-01-04T03:20:04.687Z,19.50
2019-01-04T03:21:04.671Z,19.30
2019-01-04T03:22:04.664Z,18.50
2019-01-04T03:23:04.649Z,19.00
2019-01-04T03:24:04.641Z,18.60
2019-01-04T03:25:04.628Z,18.90
2019-01-04T03:26:04.620Z,19.10
2019-01-04T03:27:04.604Z,18.40
2019-01-04T03:28:04.599Z,18.80
2019-01-04T03:29:04.585Z,18.60
2019-01-04T03:30:04.577Z,18.50
2019-01-04T03:31:04.561Z,18.60
2019-01-04T03:32:04.554Z,18.50
2019-01-04T03:33:04.548Z,18.20
2019-01-04T03:34:04.550Z,18.10
2019-01-04T03:35:04.519Z,18.00
2019-01-04T03:36:04.508Z,18.00
2019-01-04T03:37:04.496Z,18.20
2019-01-04T03:38:04.487Z,18.10
2019-01-04T03:39:04.473Z,18.40
2019-01-04T03:40:04.466Z,18.10
2019-01-04T03:41:04.452Z,19.60
2019-01-04T03:42:04.443Z,18.90
2019-01-04T03:43:04.434Z,19.00
2019-01-04T03:44:04.420Z,18.90
2019-01-04T03:45:04.409Z,18.40
2019-01-04T03:46:04.402Z,18.70
2019-01-04T03:47:04.388Z,19.20
2019-01-04T03:48:04.378Z,18.70
2019-01-04T03:49:04.363Z,18.00
2019-01-04T03:50:04.355Z,18.00
2019-01-04T03:51:04.341Z,18.30
2019-01-04T03:52:04.332Z,18.50
2019-01-04T03:53:04.328Z,17.60
2019-01-04T03:54:04.311Z,18.60
2019-01-04T03:55:04.297Z,17.90
2019-01-04T03:56:04.288Z,18.20
2019-01-04T03:57:04.279Z,17.20
2019-01-04T03:58:04.267Z,17.10
2019-01-04T03:59:04.253Z,17.10
2019-01-04T04:00:04.546Z,16.50
2019-01-04T04:01:04.231Z,16.60
2019-01-04T04:02:04.223Z,15.80
2019-01-04T04:03:04.209Z,15.70
2019-01-04T04:04:04.201Z,15.70
2019-01-04T04:05:04.189Z,16.00
2019-01-04T04:06:04.179Z,15.50
2019-01-04T04:07:04.166Z,15.20
2019-01-04T04:08:04.157Z,14.90
2019-01-04T04:09:04.144Z,15.20
2019-01-04T04:10:04.139Z,14.40
2019-01-04T04:11:04.124Z,15.10
2019-01-04T04:12:04.117Z,14.10
2019-01-04T04:13:04.104Z,14.40
2019-01-04T04:14:04.093Z,15.40
2019-01-04T04:15:04.083Z,14.70
2019-01-04T04:16:04.071Z,13.80
2019-01-04T04:17:04.059Z,14.90
2019-01-04T04:18:04.052Z,13.70
2019-01-04T04:19:04.038Z,13.90
2019-01-04T04:20:04.028Z,14.20
2019-01-04T04:21:04.039Z,13.90
2019-01-04T04:22:04.021Z,13.90
2019-01-04T04:23:03.993Z,14.00
2019-01-04T04:24:03.987Z,14.30
2019-01-04T04:25:03.973Z,13.80
2019-01-04T04:26:03.965Z,13.20
2019-01-04T04:27:03.962Z,13.70
2019-01-04T04:28:03.942Z,14.00
2019-01-04T04:29:03.940Z,14.10
2019-01-04T04:30:03.923Z,13.50
2019-01-04T04:31:04.208Z,14.00
2019-01-04T04:32:03.901Z,13.70
2019-01-04T04:33:03.887Z,13.90
2019-01-04T04:34:03.880Z,14.00
2019-01-04T04:35:03.867Z,13.60
2019-01-04T04:36:03.857Z,13.10
2019-01-04T04:37:03.844Z,12.90
2019-01-04T04:38:03.836Z,12.50
2019-01-04T04:39:03.823Z,13.40
2019-01-04T04:40:03.815Z,13.40
2019-01-04T04:41:03.801Z,14.20
2019-01-04T04:42:03.796Z,14.30
2019-01-04T04:43:03.780Z,13.70
2019-01-04T04:44:03.771Z,15.10
2019-01-04T04:45:03.760Z,15.30
2019-01-04T04:46:03.749Z,15.90
2019-01-04T04:47:03.734Z,15.40
2019-01-04T04:48:03.727Z,15.20
2019-01-04T04:49:03.713Z,15.50
2019-01-04T04:50:03.704Z,16.10
2019-01-04T04:51:03.689Z,16.00
2019-01-04T04:52:03.681Z,15.80
2019-01-04T04:53:03.670Z,16.20
2019-01-04T04:54:03.660Z,16.00
2019-01-04T04:55:03.646Z,16.00
2019-01-04T04:56:03.639Z,16.60
2019-01-04T04:57:03.628Z,15.70
2019-01-04T04:58:03.615Z,16.20
2019-01-04T04:59:03.603Z,15.70
2019-01-04T05:00:03.594Z,15.40
2019-01-04T05:01:03.580Z,15.70
2019-01-04T05:02:03.580Z,16.00
2019-01-04T05:03:03.559Z,16.00
2019-01-04T05:04:03.550Z,16.00
2019-01-04T05:05:03.536Z,15.80
2019-01-04T05:06:03.529Z,16.20
2019-01-04T05:07:03.513Z,17.30
2019-01-04T05:08:03.511Z,15.90
2019-01-04T05:09:03.491Z,16.20
2019-01-04T05:10:03.483Z,15.30
2019-01-04T05:11:03.469Z,16.20
2019-01-04T05:12:03.460Z,16.30
2019-01-04T05:13:03.458Z,16.20
2019-01-04T05:14:03.440Z,15.70
2019-01-04T05:15:03.439Z,16.60
2019-01-04T05:16:03.418Z,15.50
2019-01-04T05:17:03.407Z,16.70
2019-01-04T05:18:03.397Z,16.80
2019-01-04T05:19:03.387Z,16.20
2019-01-04T05:20:03.374Z,16.70
2019-01-04T05:21:03.362Z,15.50
2019-01-04T05:22:03.357Z,15.30
2019-01-04T05:23:03.339Z,16.00
2019-01-04T05:24:03.331Z,16.10
2019-01-04T05:25:03.318Z,16.20
2019-01-04T05:26:03.310Z,15.60
2019-01-04T05:27:03.329Z,15.80
2019-01-04T05:28:03.321Z,15.30
2019-01-04T05:29:03.276Z,15.80
2019-01-04T05:30:03.268Z,16.80
2019-01-04T05:31:03.254Z,15.80
2019-01-04T05:32:03.248Z,16.90
2019-01-04T05:33:03.231Z,16.50
2019-01-04T05:34:03.218Z,16.60
2019-01-04T05:35:03.210Z,15.50
2019-01-04T05:36:03.496Z,16.40
2019-01-04T05:37:03.189Z,16.50
2019-01-04T05:38:03.175Z,15.70
2019-01-04T05:39:03.167Z,16.10
2019-01-04T05:40:03.151Z,16.80
2019-01-04T05:41:03.142Z,16.30
2019-01-04T05:42:03.135Z,17.10
2019-01-04T05:43:03.122Z,17.40
2019-01-04T05:44:03.112Z,17.40
2019-01-04T05:45:03.096Z,17.20
2019-01-04T05:46:03.084Z,16.80
2019-01-04T05:47:03.089Z,17.50
2019-01-04T05:48:03.068Z,18.10
2019-01-04T05:49:03.060Z,18.70
2019-01-04T05:50:03.042Z,18.40
2019-01-04T05:51:03.026Z,18.90
2019-01-04T05:52:03.015Z,17.10
2019-01-04T05:53:03.004Z,18.30
2019-01-04T05:54:02.995Z,17.60
2019-01-04T05:55:02.980Z,17.90
2019-01-04T05:56:02.967Z,18.00
2019-01-04T05:57:02.958Z,17.90
2019-01-04T05:58:02.944Z,17.90
2019-01-04T05:59:02.934Z,18.00
2019-01-04T06:00:02.925Z,18.00
2019-01-04T06:01:02.913Z,18.10
2019-01-04T06:02:02.899Z,17.30
2019-01-04T06:03:02.893Z,17.60
2019-01-04T06:04:02.877Z,17.40
2019-01-04T06:05:02.869Z,17.80
2019-01-04T06:06:02.855Z,18.00
2019-01-04T06:07:03.145Z,18.10
2019-01-04T06:08:02.832Z,17.80
2019-01-04T06:09:02.823Z,17.00
2019-01-04T06:10:02.811Z,17.60
2019-01-04T06:11:02.803Z,18.00
2019-01-04T06:12:02.788Z,18.10
2019-01-04T06:13:02.781Z,17.80
2019-01-04T06:14:02.767Z,16.30
2019-01-04T06:15:02.758Z,17.00
2019-01-04T06:16:02.744Z,17.40
2019-01-04T06:17:02.736Z,17.30
2019-01-04T06:18:02.723Z,15.70
2019-01-04T06:19:02.713Z,18.20
2019-01-04T06:20:02.701Z,18.60
2019-01-04T06:21:02.692Z,19.50
2019-01-04T06:22:02.679Z,18.60
2019-01-04T06:23:02.672Z,18.60
2019-01-04T06:24:02.660Z,19.20
2019-01-04T06:25:02.660Z,19.70
2019-01-04T06:26:02.635Z,19.20
2019-01-04T06:27:02.626Z,20.50
2019-01-04T06:28:02.615Z,20.20
2019-01-04T06:29:02.604Z,20.70
2019-01-04T06:30:02.600Z,18.90
2019-01-04T06:31:02.584Z,20.20
2019-01-04T06:32:02.570Z,20.20
2019-01-04T06:33:02.562Z,20.10
2019-01-04T06:34:02.548Z,21.40
2019-01-04T06:35:02.542Z,19.80
2019-01-04T06:36:02.525Z,21.70
2019-01-04T06:37:02.518Z,20.60
2019-01-04T06:38:02.505Z,21.70
2019-01-04T06:39:02.497Z,21.90
2019-01-04T06:40:02.482Z,21.30
2019-01-04T06:41:02.474Z,21.50
2019-01-04T06:42:02.462Z,22.30
2019-01-04T06:43:02.453Z,22.90
2019-01-04T06:44:03.104Z,22.40
2019-01-04T06:45:02.431Z,22.70
2019-01-04T06:46:02.418Z,22.20
2019-01-04T06:47:02.408Z,23.20
2019-01-04T06:48:02.395Z,22.50
2019-01-04T06:49:02.388Z,23.80
2019-01-04T06:50:02.375Z,22.50
2019-01-04T06:51:02.366Z,22.60
2019-01-04T06:52:02.355Z,22.80
2019-01-04T06:53:02.365Z,24.60
2019-01-04T06:54:02.482Z,25.10
2019-01-04T06:55:02.323Z,24.30
2019-01-04T06:56:02.345Z,24.70
2019-01-04T06:57:02.301Z,24.30
2019-01-04T06:58:02.290Z,24.00
2019-01-04T06:59:02.281Z,25.10
2019-01-04T07:00:02.267Z,24.60
2019-01-04T07:01:02.264Z,26.10
2019-01-04T07:02:02.258Z,25.80
2019-01-04T07:03:02.239Z,26.60
2019-01-04T07:04:02.224Z,26.00
2019-01-04T07:05:02.216Z,27.60
2019-01-04T07:06:02.210Z,25.70
2019-01-04T07:07:02.464Z,27.80
2019-01-04T07:08:02.193Z,27.80
2019-01-04T07:09:02.174Z,26.30
2019-01-04T07:10:02.161Z,28.00
2019-01-04T07:11:02.159Z,27.00
2019-01-04T07:12:02.155Z,26.90
2019-01-04T07:13:02.133Z,26.20
2019-01-04T07:14:02.120Z,27.10
2019-01-04T07:15:02.117Z,28.00
2019-01-04T07:16:02.098Z,27.40
2019-01-04T07:17:02.089Z,26.40
2019-01-04T07:18:02.078Z,26.60
2019-01-04T07:19:02.070Z,25.50
2019-01-04T07:20:02.056Z,27.00
2019-01-04T07:21:02.048Z,25.90
2019-01-04T07:22:02.036Z,26.40
2019-01-04T07:23:02.028Z,26.50
2019-01-04T07:24:02.016Z,25.30
2019-01-04T07:25:02.021Z,25.70
2019-01-04T07:26:01.995Z,26.00
2019-01-04T07:27:01.993Z,25.00
2019-01-04T07:28:01.975Z,25.90
2019-01-04T07:29:01.966Z,24.30
2019-01-04T07:30:01.989Z,25.00
2019-01-04T07:31:01.945Z,25.10
2019-01-04T07:32:01.932Z,23.10
2019-01-04T07:33:01.925Z,25.80
2019-01-04T07:34:01.914Z,25.30
2019-01-04T07:35:01.905Z,24.90
2019-01-04T07:36:01.915Z,24.50
2019-01-04T07:37:01.884Z,24.30
2019-01-04T07:38:01.881Z,23.80
2019-01-04T07:39:01.865Z,24.40
2019-01-04T07:40:01.851Z,22.20
2019-01-04T07:41:02.306Z,21.80
2019-01-04T07:42:01.832Z,21.90
2019-01-04T07:43:01.824Z,22.10
2019-01-04T07:44:01.817Z,22.70
2019-01-04T07:45:01.805Z,23.30
2019-01-04T07:46:01.793Z,22.10
2019-01-04T07:47:01.784Z,21.90
2019-01-04T07:48:01.922Z,20.30
2019-01-04T07:49:01.768Z,20.30
2019-01-04T07:50:01.767Z,21.70
2019-01-04T07:51:01.743Z,21.10
2019-01-04T07:52:01.752Z,21.10
2019-01-04T07:53:01.726Z,20.60
2019-01-04T07:54:01.714Z,20.80
2019-01-04T07:55:01.704Z,21.00
2019-01-04T07:56:01.691Z,20.80
2019-01-04T07:57:01.683Z,19.70
2019-01-04T07:58:01.671Z,20.60
2019-01-04T07:59:01.667Z,19.50
2019-01-04T08:00:01.651Z,19.20
2019-01-04T08:01:01.669Z,18.70
2019-01-04T08:02:01.631Z,20.10
2019-01-04T08:03:01.623Z,18.40
2019-01-04T08:04:01.622Z,18.30
2019-01-04T08:05:01.604Z,17.40
2019-01-04T08:06:01.761Z,14.60
2019-01-04T08:07:01.586Z,16.30
2019-01-04T08:08:01.584Z,16.40
2019-01-04T08:09:01.564Z,16.70
2019-01-04T08:10:01.569Z,16.00
2019-01-04T08:11:01.544Z,16.50
2019-01-04T08:12:01.532Z,15.60
2019-01-04T08:13:01.527Z,15.40
2019-01-04T08:14:01.514Z,14.80
2019-01-04T08:15:01.507Z,15.30
2019-01-04T08:16:01.507Z,13.90
2019-01-04T08:17:01.496Z,12.80
2019-01-04T08:18:01.475Z,13.70
2019-01-04T08:19:01.467Z,12.60
2019-01-04T08:20:01.460Z,11.50
2019-01-04T08:21:01.450Z,10.80
2019-01-04T08:22:01.436Z,11.40
2019-01-04T08:23:01.430Z,11.10
2019-01-04T08:24:01.419Z,10.20
2019-01-04T08:25:01.409Z,9.90
2019-01-04T08:26:01.399Z,10.70
2019-01-04T08:27:01.404Z,10.20
2019-01-04T08:28:01.378Z,9.10
2019-01-04T08:29:01.371Z,8.80
2019-01-04T08:30:01.360Z,8.70
2019-01-04T08:31:01.351Z,9.30
2019-01-04T08:32:01.352Z,9.40
2019-01-04T08:33:01.333Z,8.70
2019-01-04T08:34:01.322Z,8.30
2019-01-04T08:35:01.327Z,8.20
2019-01-04T08:36:01.319Z,8.20
2019-01-04T08:37:01.311Z,8.00
2019-01-04T08:38:01.286Z,7.90
2019-01-04T08:39:01.282Z,7.50
2019-01-04T08:40:01.280Z,8.10
2019-01-04T08:41:01.259Z,7.10
2019-01-04T08:42:01.250Z,7.30
2019-01-04T08:43:01.253Z,7.10
2019-01-04T08:44:01.241Z,7.60
2019-01-04T08:45:01.222Z,7.40
2019-01-04T08:46:01.214Z,7.20
2019-01-04T08:47:01.207Z,7.10
2019-01-04T08:48:01.192Z,6.70
2019-01-04T08:49:01.186Z,7.10
2019-01-04T08:50:01.175Z,6.80
2019-01-04T08:51:01.171Z,7.00
2019-01-04T08:52:01.172Z,7.60
2019-01-04T08:53:01.150Z,7.00
2019-01-04T08:54:01.290Z,7.00
2019-01-04T08:55:01.131Z,6.70
2019-01-04T08:56:01.130Z,7.00
2019-01-04T08:57:01.154Z,7.10
2019-01-04T08:58:01.108Z,6.50
2019-01-04T08:59:01.099Z,6.70
2019-01-04T09:00:01.086Z,6.80
2019-01-04T09:01:01.079Z,6.50
2019-01-04T09:02:01.084Z,7.40
2019-01-04T09:03:01.073Z,6.40
2019-01-04T09:04:01.068Z,7.10
2019-01-04T09:05:01.046Z,6.50
2019-01-04T09:06:01.034Z,6.10
2019-01-04T09:07:01.026Z,6.60
2019-01-04T09:08:01.025Z,7.00
2019-01-04T09:09:01.009Z,7.20
2019-01-04T09:10:01.005Z,6.80
2019-01-04T09:11:00.992Z,6.10
2019-01-04T09:12:00.981Z,6.90
2019-01-04T09:13:00.993Z,6.60
2019-01-04T09:14:00.967Z,6.50
2019-01-04T09:15:00.957Z,6.80
2019-01-04T09:16:00.965Z,6.50
2019-01-04T09:17:00.947Z,6.30
2019-01-04T09:18:00.943Z,7.00
2019-01-04T09:19:00.923Z,6.60
2019-01-04T09:20:00.912Z,6.40
2019-01-04T09:21:00.906Z,6.40
2019-01-04T09:22:00.895Z,6.50
2019-01-04T09:23:00.890Z,6.60
2019-01-04T09:24:00.878Z,5.90
2019-01-04T09:25:00.886Z,5.90
2019-01-04T09:26:00.861Z,6.00
2019-01-04T09:27:00.854Z,6.00
2019-01-04T09:28:00.848Z,5.70
2019-01-04T09:29:00.838Z,5.70
2019-01-04T09:30:00.827Z,5.80
2019-01-04T09:31:00.820Z,5.70
2019-01-04T09:32:00.809Z,5.40
2019-01-04T09:33:00.816Z,5.50
2019-01-04T09:34:00.794Z,5.70
2019-01-04T09:35:00.798Z,4.90
2019-01-04T09:36:00.776Z,4.50
2019-01-04T09:37:00.771Z,5.50
2019-01-04T09:38:00.772Z,5.30
2019-01-04T09:39:03.366Z,5.20
2019-01-04T09:40:00.741Z,5.40
2019-01-04T09:41:00.735Z,4.70
2019-01-04T09:42:00.740Z,4.80
2019-01-04T09:43:00.718Z,5.90
2019-01-04T09:44:00.707Z,4.90
2019-01-04T09:45:00.700Z,5.20
2019-01-04T09:46:00.694Z,5.20
2019-01-04T09:47:00.685Z,5.10
2019-01-04T09:48:00.676Z,5.50
2019-01-04T09:49:00.666Z,4.90
2019-01-04T09:50:00.674Z,4.90
2019-01-04T09:51:00.666Z,5.30
2019-01-04T09:52:00.643Z,5.00
2019-01-04T09:53:00.633Z,4.80
2019-01-04T09:54:00.627Z,4.60
2019-01-04T09:55:00.615Z,4.70
2019-01-04T09:56:00.610Z,4.80
2019-01-04T09:57:00.615Z,4.60
2019-01-04T09:58:00.605Z,4.80
2019-01-04T09:59:00.581Z,4.80
2019-01-04T10:00:00.576Z,4.70
2019-01-04T10:01:00.566Z,4.80
2019-01-04T10:02:00.560Z,4.70
2019-01-04T10:03:00.553Z,4.40
2019-01-04T10:04:00.543Z,4.70
2019-01-04T10:05:00.536Z,4.20
2019-01-04T10:06:00.526Z,4.50
2019-01-04T10:07:00.529Z,4.20
2019-01-04T10:08:00.509Z,4.60
2019-01-04T10:09:00.500Z,4.50
2019-01-04T10:10:00.499Z,5.10
2019-01-04T10:11:00.482Z,4.20
2019-01-04T10:12:00.626Z,4.60
2019-01-04T10:13:00.466Z,4.20
2019-01-04T10:14:00.459Z,4.70
2019-01-04T10:15:00.456Z,4.70
2019-01-04T10:16:00.454Z,4.30
2019-01-04T10:17:00.439Z,4.30
2019-01-04T10:18:00.425Z,4.70
2019-01-04T10:19:00.422Z,5.10
2019-01-04T10:20:00.408Z,4.70
2019-01-04T10:21:00.398Z,4.90
2019-01-04T10:22:00.403Z,4.50
2019-01-04T10:23:00.427Z,4.60
2019-01-04T10:24:00.399Z,4.20
2019-01-04T10:25:00.367Z,4.60
2019-01-04T10:26:00.370Z,4.50
2019-01-04T10:27:00.348Z,4.20
2019-01-04T10:28:00.375Z,4.70
2019-01-04T10:29:00.334Z,4.60
2019-01-04T10:30:00.476Z,4.60
2019-01-04T10:31:00.311Z,4.30
2019-01-04T10:32:00.305Z,4.70
2019-01-04T10:33:00.296Z,4.20
2019-01-04T10:34:00.289Z,4.60
2019-01-04T10:35:00.289Z,4.70
2019-01-04T10:36:00.272Z,4.40
2019-01-04T10:37:00.262Z,4.40
2019-01-04T10:38:00.255Z,4.70
2019-01-04T10:39:00.249Z,4.40
2019-01-04T10:40:00.242Z,4.50
2019-01-04T10:41:00.231Z,4.70
2019-01-04T10:42:00.221Z,4.40
2019-01-04T10:43:00.211Z,4.20
2019-01-04T10:44:00.213Z,4.20
2019-01-04T10:45:00.194Z,4.50
2019-01-04T10:46:00.191Z,4.90
2019-01-04T10:47:00.180Z,4.30
2019-01-04T10:48:00.169Z,4.10
2019-01-04T10:49:00.158Z,4.40
2019-01-04T10:50:00.175Z,4.00
2019-01-04T10:51:00.140Z,4.10
2019-01-04T10:52:00.134Z,4.20
2019-01-04T10:53:00.141Z,4.30
2019-01-04T10:54:00.117Z,4.60
2019-01-04T10:55:00.161Z,4.50
2019-01-04T10:56:00.099Z,4.50
2019-01-04T10:57:00.090Z,4.80
2019-01-04T10:58:00.082Z,4.40
2019-01-04T10:59:00.070Z,4.50
2019-01-04T11:00:00.200Z,4.70
2019-01-04T11:01:00.054Z,4.70
2019-01-04T11:02:00.047Z,4.60
2019-01-04T11:03:00.035Z,4.90
2019-01-04T11:04:00.029Z,5.00
2019-01-04T11:05:00.018Z,5.00
2019-01-04T11:06:00.019Z,5.30
2019-01-04T11:07:00.000Z,5.20
2019-01-04T11:07:59.994Z,5.20
2019-01-04T11:08:59.983Z,7.70
2019-01-04T11:09:59.987Z,6.70
2019-01-04T11:10:59.966Z,5.90
2019-01-04T11:11:59.958Z,6.10
2019-01-04T11:12:59.948Z,5.80
2019-01-04T11:13:59.943Z,6.40
2019-01-04T11:14:59.933Z,6.20
2019-01-04T11:15:59.930Z,6.20
2019-01-04T11:16:59.913Z,6.00
2019-01-04T11:17:59.923Z,6.10
2019-01-04T11:18:59.895Z,7.00
2019-01-04T11:19:59.888Z,6.80
2019-01-04T11:20:59.881Z,6.30
2019-01-04T11:21:59.872Z,6.90
2019-01-04T11:22:59.872Z,7.50
2019-01-04T11:23:59.872Z,7.00
2019-01-04T11:24:59.858Z,7.50
2019-01-04T11:25:59.835Z,6.90
2019-01-04T11:26:59.833Z,7.40
2019-01-04T11:27:59.817Z,7.40
2019-01-04T11:28:59.821Z,7.40
2019-01-04T11:29:59.800Z,7.70
2019-01-04T11:30:59.789Z,8.00
2019-01-04T11:31:59.783Z,7.30
2019-01-04T11:32:59.771Z,7.10
2019-01-04T11:33:59.767Z,7.40
2019-01-04T11:34:59.759Z,7.60
2019-01-04T11:35:59.746Z,8.10
2019-01-04T11:36:59.835Z,7.60
2019-01-04T11:37:59.746Z,8.10
2019-01-04T11:38:59.738Z,7.90
2019-01-04T11:39:59.711Z,8.00
2019-01-04T11:40:59.700Z,7.90
2019-01-04T11:41:59.712Z,8.40
2019-01-04T11:42:59.682Z,8.00
2019-01-04T11:43:59.675Z,8.10
2019-01-04T11:44:59.663Z,8.60
2019-01-04T11:45:59.657Z,8.40
2019-01-04T11:46:59.653Z,8.60
2019-01-04T11:47:59.654Z,8.80
2019-01-04T11:48:59.628Z,8.20
2019-01-04T11:49:59.623Z,9.00
2019-01-04T11:50:59.612Z,9.20
2019-01-04T11:51:59.611Z,8.20
2019-01-04T11:52:59.603Z,9.00
2019-01-04T11:53:59.587Z,8.70
2019-01-04T11:54:59.574Z,9.10
2019-01-04T11:55:59.571Z,8.70
2019-01-04T11:56:59.557Z,8.90
2019-01-04T11:57:59.550Z,8.70
2019-01-04T11:58:59.621Z,9.80
2019-01-04T11:59:59.540Z,9.30
2019-01-04T12:00:59.521Z,8.90
2019-01-04T12:01:59.517Z,8.80
2019-01-04T12:02:59.506Z,8.60
2019-01-04T12:03:59.501Z,8.60
2019-01-04T12:04:59.488Z,9.10
2019-01-04T12:05:59.483Z,8.90
2019-01-04T12:06:59.483Z,8.80
2019-01-04T12:07:59.463Z,8.80
2019-01-04T12:08:59.451Z,8.60
2019-01-04T12:09:59.445Z,9.20
2019-01-04T12:10:59.432Z,8.40
2019-01-04T12:11:59.426Z,9.00
2019-01-04T12:12:59.415Z,9.30
2019-01-04T12:13:59.408Z,8.80
2019-01-04T12:14:59.397Z,8.90
2019-01-04T12:15:59.392Z,8.80
2019-01-04T12:16:59.381Z,9.10
2019-01-04T12:17:59.374Z,8.90
2019-01-04T12:18:59.362Z,8.90
2019-01-04T12:19:59.355Z,9.30
2019-01-04T12:20:59.343Z,9.10
2019-01-04T12:21:59.337Z,9.20
2019-01-04T12:22:59.325Z,9.80
2019-01-04T12:23:59.469Z,9.20
2019-01-04T12:24:59.307Z,9.00
2019-01-04T12:25:59.301Z,9.40
2019-01-04T12:26:59.288Z,8.90
2019-01-04T12:27:59.282Z,9.20
2019-01-04T12:28:59.271Z,9.40
2019-01-04T12:29:59.416Z,8.80
2019-01-04T12:30:59.254Z,9.20
2019-01-04T12:31:59.247Z,9.40
2019-01-04T12:32:59.239Z,9.70
2019-01-04T12:33:59.228Z,9.30
2019-01-04T12:34:59.217Z,9.00
2019-01-04T12:35:59.210Z,9.00
2019-01-04T12:36:59.199Z,10.10
2019-01-04T12:37:59.192Z,9.50
2019-01-04T12:38:59.182Z,9.00
2019-01-04T12:39:59.178Z,9.00
2019-01-04T12:40:59.164Z,9.50
2019-01-04T12:41:59.157Z,8.80
2019-01-04T12:42:59.145Z,9.70
2019-01-04T12:43:59.140Z,9.50
2019-01-04T12:44:59.128Z,9.90
2019-01-04T12:45:59.123Z,9.90
2019-01-04T12:46:59.110Z,9.50
2019-01-04T12:47:59.107Z,9.30
2019-01-04T12:48:59.093Z,10.10
2019-01-04T12:49:59.088Z,9.90
2019-01-04T12:50:59.075Z,8.60
2019-01-04T12:51:59.069Z,9.60
2019-01-04T12:52:59.069Z,8.90
2019-01-04T12:53:59.053Z,9.30
2019-01-04T12:54:59.041Z,8.50
2019-01-04T12:55:59.034Z,9.00
2019-01-04T12:56:59.024Z,9.40
2019-01-04T12:57:59.017Z,9.90
2019-01-04T12:58:59.021Z,9.40
2019-01-04T12:59:59.000Z,9.70
2019-01-04T13:00:58.988Z,10.20